createdAt,value
2023-03-16T00:02:57.859Z,92.6
2023-03-16T00:07:57.758Z,92.6
2023-03-16T00:12:57.765Z,92.6
2023-03-16T00:17:57.791Z,92.5
2023-03-16T00:22:57.805Z,92.5
2023-03-16T00:27:57.783Z,92.5
2023-03-16T00:32:57.804Z,92.5
2023-03-16T00:37:57.926Z,92.5
2023-03-16T00:42:57.778Z,92.6
2023-03-16T00:47:57.780Z,92.8
2023-03-16T00:52:57.764Z,92.6
2023-03-16T00:57:57.753Z,92.5
2023-03-16T01:02:57.837Z,92.4
2023-03-16T01:07:57.756Z,92.5
2023-03-16T01:12:57.827Z,92.4
2023-03-16T01:17:57.744Z,92.4
2023-03-16T01:22:57.769Z,92.3
2023-03-16T01:27:57.751Z,92.3
2023-03-16T01:32:57.949Z,92.4
2023-03-16T01:37:58.117Z,92.4
2023-03-16T01:42:57.949Z,92.3
2023-03-16T01:47:57.932Z,92.3
2023-03-16T01:52:57.961Z,92.3
2023-03-16T01:57:57.933Z,92.3
2023-03-16T02:02:58.106Z,92.2
2023-03-16T02:07:58.017Z,92.2
2023-03-16T02:12:58.211Z,92.1
2023-03-16T02:17:58.016Z,92.2
2023-03-16T02:22:58.080Z,92.2
2023-03-16T02:27:58.027Z,92.2
2023-03-16T02:32:58.162Z,92
2023-03-16T02:37:58.235Z,92.1
2023-03-16T02:42:58.079Z,92.1
2023-03-16T02:47:58.043Z,92.1
2023-03-16T02:52:58.105Z,91.9
2023-03-16T02:57:58.097Z,91.8
2023-03-16T03:02:58.280Z,91.7
2023-03-16T03:07:58.151Z,91.6
2023-03-16T03:12:58.171Z,91.6
2023-03-16T03:17:58.141Z,91.5
2023-03-16T03:22:58.318Z,91.4
2023-03-16T03:27:58.222Z,91.1
2023-03-16T03:32:58.254Z,90.9
2023-03-16T03:37:58.387Z,90.8
2023-03-16T03:42:58.198Z,90.7
2023-03-16T03:47:58.178Z,90.6
2023-03-16T03:52:58.237Z,90.4
2023-03-16T03:57:58.157Z,90.4
2023-03-16T04:02:58.363Z,90.5
2023-03-16T04:07:58.169Z,90.3
2023-03-16T04:12:58.244Z,90.4
2023-03-16T04:17:58.174Z,90.4
2023-03-16T04:22:58.258Z,90.4
2023-03-16T04:27:58.164Z,90.3
2023-03-16T04:32:58.261Z,90.3
2023-03-16T04:37:58.160Z,90.3
2023-03-16T04:42:58.192Z,90.4
2023-03-16T04:47:58.160Z,90.4
2023-03-16T04:52:58.166Z,90.4
2023-03-16T04:57:58.171Z,90.4
2023-03-16T05:02:58.178Z,90.4
2023-03-16T05:07:58.169Z,90.3
2023-03-16T05:12:58.332Z,90.1
2023-03-16T05:17:58.168Z,89.9
2023-03-16T05:22:58.200Z,89.4
2023-03-16T05:27:58.169Z,89.4
2023-03-16T05:32:58.266Z,89.5
2023-03-16T05:37:58.165Z,89.4
2023-03-16T05:42:58.215Z,88.9
2023-03-16T05:47:58.178Z,88.6
2023-03-16T05:52:58.166Z,88.8
2023-03-16T05:57:58.163Z,88.7
2023-03-16T06:02:58.241Z,89.3
2023-03-16T06:07:58.182Z,89.4
2023-03-16T06:12:59.888Z,90.4
2023-03-16T06:17:58.227Z,90.5
2023-03-16T06:22:58.249Z,90
2023-03-16T06:27:58.200Z,90
2023-03-16T06:32:58.260Z,90.1
2023-03-16T06:37:58.202Z,90.1
2023-03-16T06:42:58.267Z,88.8
2023-03-16T06:47:58.200Z,88.2
2023-03-16T06:52:58.207Z,87.6
2023-03-16T06:57:58.213Z,86.8
2023-03-16T07:03:00.375Z,86.4
2023-03-16T07:07:58.313Z,86
2023-03-16T07:12:58.525Z,86
2023-03-16T07:17:58.440Z,86.1
2023-03-16T07:22:58.472Z,86.2
2023-03-16T07:27:58.370Z,87.2
2023-03-16T07:32:58.397Z,86.5
2023-03-16T07:37:58.359Z,84
2023-03-16T07:42:58.560Z,83.2
2023-03-16T07:47:58.340Z,81.2
2023-03-16T07:52:58.355Z,82.1
2023-03-16T07:57:58.391Z,80.5
2023-03-16T08:02:58.391Z,78.6
2023-03-16T08:07:58.355Z,79.4
2023-03-16T08:12:58.506Z,77.5
2023-03-16T08:17:58.340Z,77.5
2023-03-16T08:22:58.387Z,77.1
2023-03-16T08:27:58.357Z,75.3
2023-03-16T08:32:58.424Z,75.2
2023-03-16T08:37:58.339Z,74.3
2023-03-16T08:42:58.364Z,73.8
2023-03-16T08:47:58.339Z,73.6
2023-03-16T08:52:58.345Z,73.2
2023-03-16T08:57:58.340Z,72.3
2023-03-16T09:02:58.389Z,72
2023-03-16T09:07:58.329Z,71.3
2023-03-16T09:12:58.538Z,67.1
2023-03-16T09:17:58.335Z,69.9
2023-03-16T09:22:58.369Z,68.1
2023-03-16T09:27:58.333Z,69.1
2023-03-16T09:32:58.375Z,66
2023-03-16T09:38:06.936Z,64.9
2023-03-16T09:42:58.372Z,65
2023-03-16T09:47:58.345Z,61.4
2023-03-16T09:52:58.382Z,61.6
2023-03-16T09:57:58.353Z,60
2023-03-16T10:02:58.405Z,57.7
2023-03-16T10:07:58.361Z,57.3
2023-03-16T10:12:59.162Z,56.2
2023-03-16T10:17:58.375Z,55.2
2023-03-16T10:22:58.389Z,54.3
2023-03-16T10:27:58.381Z,55.5
2023-03-16T10:32:58.448Z,55.7
2023-03-16T10:37:58.368Z,55.7
2023-03-16T10:42:58.391Z,56.4
2023-03-16T10:47:58.370Z,55.1
2023-03-16T10:52:59.371Z,54.9
2023-03-16T10:57:58.404Z,53.2
2023-03-16T11:02:58.414Z,53.4
2023-03-16T11:07:58.365Z,52.5
2023-03-16T11:13:01.391Z,51.1
2023-03-16T11:17:58.369Z,49
2023-03-16T11:22:58.423Z,51.4
2023-03-16T11:27:58.360Z,50.4
2023-03-16T11:32:58.456Z,48.5
2023-03-16T11:37:58.359Z,45.6
2023-03-16T11:42:58.385Z,47.6
2023-03-16T11:47:58.354Z,46.4
2023-03-16T11:52:58.356Z,44.8
2023-03-16T11:57:58.354Z,44.9
2023-03-16T12:02:58.435Z,44.3
2023-03-16T12:07:58.341Z,42.8
2023-03-16T12:12:58.430Z,44.8
2023-03-16T12:17:58.353Z,44.1
2023-03-16T12:22:58.499Z,43.4
2023-03-16T12:27:58.339Z,42.3
2023-03-16T12:32:58.460Z,41.6
2023-03-16T12:37:58.361Z,40.9
2023-03-16T12:42:58.366Z,40.4
2023-03-16T12:47:58.344Z,41.5
2023-03-16T12:52:58.335Z,41
2023-03-16T12:57:58.349Z,39.5
2023-03-16T13:02:58.363Z,38.4
2023-03-16T13:07:58.329Z,37.8
2023-03-16T13:12:58.453Z,36.5
2023-03-16T13:17:58.346Z,37.9
2023-03-16T13:22:58.375Z,36.7
2023-03-16T13:27:58.394Z,38.1
2023-03-16T13:32:58.382Z,35.2
2023-03-16T13:37:58.344Z,35.3
2023-03-16T13:42:58.449Z,35.6
2023-03-16T13:47:58.354Z,35.7
2023-03-16T13:52:58.348Z,33.6
2023-03-16T13:57:58.340Z,32.3
2023-03-16T14:02:58.472Z,30.8
2023-03-16T14:07:58.341Z,31.8
2023-03-16T14:12:58.457Z,30.6
2023-03-16T14:17:58.353Z,33.1
2023-03-16T14:22:59.948Z,33.4
2023-03-16T14:27:58.361Z,32
2023-03-16T14:32:58.566Z,31.4
2023-03-16T14:37:58.349Z,32.4
2023-03-16T14:42:58.424Z,31.9
2023-03-16T14:47:58.351Z,32
2023-03-16T14:52:58.344Z,31.7
2023-03-16T14:57:58.350Z,31.8
2023-03-16T15:02:58.413Z,31.4
2023-03-16T15:07:58.335Z,29.8
2023-03-16T15:12:58.446Z,28.9
2023-03-16T15:17:58.342Z,30
2023-03-16T15:22:58.363Z,30.6
2023-03-16T15:27:58.350Z,29.6
2023-03-16T15:32:58.462Z,29
2023-03-16T15:37:58.341Z,28.3
2023-03-16T15:42:58.356Z,28.4
2023-03-16T15:47:58.336Z,28.2
2023-03-16T15:52:58.341Z,29.5
2023-03-16T15:57:58.350Z,29.3
2023-03-16T16:02:58.358Z,29.8
2023-03-16T16:07:58.318Z,29.3
2023-03-16T16:12:58.479Z,29.4
2023-03-16T16:18:19.588Z,29.3
2023-03-16T16:22:58.364Z,29.3
2023-03-16T16:27:58.350Z,28.9
2023-03-16T16:32:58.894Z,28.4
2023-03-16T16:37:58.329Z,27.9
2023-03-16T16:42:58.358Z,28.5
2023-03-16T16:47:58.327Z,28.9
2023-03-16T16:52:58.324Z,29.3
2023-03-16T16:57:58.353Z,29.2
2023-03-16T17:02:58.350Z,29.2
2023-03-16T17:07:58.324Z,29.5
2023-03-16T17:12:58.426Z,29.8
2023-03-16T17:17:58.329Z,30.6
2023-03-16T17:22:58.396Z,31.1
2023-03-16T17:27:58.328Z,31.6
2023-03-16T17:32:58.386Z,32
2023-03-16T17:37:58.326Z,32.4
2023-03-16T17:42:58.353Z,32.3
2023-03-16T17:47:58.328Z,32.4
2023-03-16T17:52:58.344Z,32.6
2023-03-16T17:57:58.339Z,32.6
2023-03-16T18:02:58.355Z,33
2023-03-16T18:07:58.320Z,33.1
2023-03-16T18:12:58.432Z,32.9
2023-03-16T18:17:58.362Z,32.9
2023-03-16T18:22:58.356Z,33.4
2023-03-16T18:27:58.336Z,33.3
2023-03-16T18:32:58.413Z,33.6
2023-03-16T18:37:58.321Z,33.9
2023-03-16T18:42:58.361Z,34
2023-03-16T18:47:58.337Z,34.4
2023-03-16T18:52:58.364Z,34.2
2023-03-16T18:57:58.345Z,34.6
2023-03-16T19:02:58.342Z,34.1
2023-03-16T19:07:58.320Z,34.1
2023-03-16T19:12:58.406Z,34.3
2023-03-16T19:17:58.351Z,34.4
2023-03-16T19:22:58.340Z,34.6
2023-03-16T19:27:58.313Z,34.7
2023-03-16T19:32:58.367Z,35.6
2023-03-16T19:37:58.334Z,35.8
2023-03-16T19:42:58.366Z,36.1
2023-03-16T19:47:58.307Z,36.1
2023-03-16T19:52:58.309Z,36.3
2023-03-16T19:57:58.304Z,36.4
2023-03-16T20:02:58.337Z,36.7
2023-03-16T20:07:58.308Z,37.1
2023-03-16T20:12:58.406Z,37.1
2023-03-16T20:17:58.311Z,37.3
2023-03-16T20:22:58.343Z,37.3
2023-03-16T20:27:58.318Z,37.6
2023-03-16T20:32:58.385Z,37.8
2023-03-16T20:37:58.303Z,37.9
2023-03-16T20:42:58.340Z,38.4
2023-03-16T20:47:58.306Z,38.6
2023-03-16T20:52:58.302Z,38.9
2023-03-16T20:57:58.305Z,38.9
2023-03-16T21:02:58.322Z,39.8
2023-03-16T21:07:58.296Z,40.2
2023-03-16T21:12:58.400Z,40.2
2023-03-16T21:17:58.298Z,40.5
2023-03-16T21:22:58.320Z,42.5
2023-03-16T21:27:58.318Z,42.6
2023-03-16T21:32:58.299Z,42.5
2023-03-16T21:37:58.297Z,42.2
2023-03-16T21:42:58.316Z,42.3
2023-03-16T21:47:58.302Z,42.6
2023-03-16T21:52:58.301Z,43
2023-03-16T21:57:58.280Z,43.3
2023-03-16T22:02:58.439Z,43.7
2023-03-16T22:07:58.284Z,44.1
2023-03-16T22:12:58.373Z,44.5
2023-03-16T22:17:58.282Z,44.7
2023-03-16T22:22:58.316Z,45.3
2023-03-16T22:27:58.276Z,45.5
2023-03-16T22:32:58.452Z,45.7
2023-03-16T22:37:58.279Z,46.1
2023-03-16T22:42:58.301Z,46.2
2023-03-16T22:47:58.271Z,46.3
2023-03-16T22:52:58.288Z,46.4
2023-03-16T22:57:58.460Z,46.6
2023-03-16T23:02:58.289Z,46.7
2023-03-16T23:07:58.266Z,46.9
2023-03-16T23:12:58.353Z,47.2
2023-03-16T23:17:58.284Z,47
2023-03-16T23:22:58.310Z,47.4
2023-03-16T23:27:58.283Z,47.4
2023-03-16T23:32:58.390Z,47.6
2023-03-16T23:37:58.286Z,47.8
2023-03-16T23:42:58.309Z,48
2023-03-16T23:47:58.280Z,48.4
2023-03-16T23:52:58.367Z,48.6
2023-03-16T23:57:58.270Z,48.9
